sensor_id;sensor_type;location;lat;lon;timestamp;pressure;altitude;pressure_sealevel;temperature;humidity
6506;BME280;3286;49.858;8.768;2023-02-20T00:02:15;100268.63;;;10.67;56.12
6506;BME280;3286;49.858;8.768;2023-02-20T00:04:42;100260.91;;;10.76;55.45
6506;BME280;3286;49.858;8.768;2023-02-20T00:07:08;100257.25;;;10.55;56.59
6506;BME280;3286;49.858;8.768;2023-02-20T00:09:35;100248.84;;;10.94;55.13
6506;BME280;3286;49.858;8.768;2023-02-20T00:12:01;100248.47;;;10.66;55.74
6506;BME280;3286;49.858;8.768;2023-02-20T00:14:29;100246.44;;;10.58;55.95
6506;BME280;3286;49.858;8.768;2023-02-20T00:16:56;100245.97;;;10.53;56.21
6506;BME280;3286;49.858;8.768;2023-02-20T00:19:23;100246.34;;;10.49;55.90
6506;BME280;3286;49.858;8.768;2023-02-20T00:21:50;100249.75;;;9.94;56.82
6506;BME280;3286;49.858;8.768;2023-02-20T00:24:17;100245.19;;;9.73;57.57
6506;BME280;3286;49.858;8.768;2023-02-20T00:26:45;100237.88;;;9.88;57.64
6506;BME280;3286;49.858;8.768;2023-02-20T00:29:14;100242.31;;;9.76;57.36
6506;BME280;3286;49.858;8.768;2023-02-20T00:31:42;100239.78;;;9.63;58.54
6506;BME280;3286;49.858;8.768;2023-02-20T00:34:09;100234.03;;;9.47;58.58
6506;BME280;3286;49.858;8.768;2023-02-20T00:36:36;100237.16;;;9.75;57.80
6506;BME280;3286;49.858;8.768;2023-02-20T00:39:02;100241.38;;;10.00;56.74
6506;BME280;3286;49.858;8.768;2023-02-20T00:41:29;100234.38;;;9.99;55.87
6506;BME280;3286;49.858;8.768;2023-02-20T00:43:56;100247.94;;;9.71;56.81
6506;BME280;3286;49.858;8.768;2023-02-20T00:46:22;100244.44;;;9.37;57.50
6506;BME280;3286;49.858;8.768;2023-02-20T00:48:50;100249.41;;;9.87;56.44
6506;BME280;3286;49.858;8.768;2023-02-20T00:51:17;100237.88;;;9.99;55.82
6506;BME280;3286;49.858;8.768;2023-02-20T00:53:44;100243.16;;;9.99;54.85
6506;BME280;3286;49.858;8.768;2023-02-20T00:56:13;100244.72;;;10.02;54.88
6506;BME280;3286;49.858;8.768;2023-02-20T00:58:42;100241.09;;;10.14;54.55
6506;BME280;3286;49.858;8.768;2023-02-20T01:01:09;100235.72;;;9.93;55.01
6506;BME280;3286;49.858;8.768;2023-02-20T01:03:36;100238.34;;;9.70;55.26
6506;BME280;3286;49.858;8.768;2023-02-20T01:06:04;100242.66;;;9.02;57.25
6506;BME280;3286;49.858;8.768;2023-02-20T01:08:31;100242.50;;;9.27;56.87
6506;BME280;3286;49.858;8.768;2023-02-20T01:10:57;100246.97;;;9.50;55.66
6506;BME280;3286;49.858;8.768;2023-02-20T01:13:25;100235.47;;;9.62;55.13
6506;BME280;3286;49.858;8.768;2023-02-20T01:15:52;100244.28;;;9.27;56.49
6506;BME280;3286;49.858;8.768;2023-02-20T01:18:18;100236.63;;;8.88;56.97
6506;BME280;3286;49.858;8.768;2023-02-20T01:20:45;100236.41;;;9.38;55.54
6506;BME280;3286;49.858;8.768;2023-02-20T01:23:14;100247.53;;;9.42;55.58
6506;BME280;3286;49.858;8.768;2023-02-20T01:25:41;100238.47;;;10.03;54.36
6506;BME280;3286;49.858;8.768;2023-02-20T01:28:08;100223.34;;;10.05;53.99
6506;BME280;3286;49.858;8.768;2023-02-20T01:30:35;100221.19;;;9.42;55.11
6506;BME280;3286;49.858;8.768;2023-02-20T01:33:02;100233.72;;;9.16;56.53
6506;BME280;3286;49.858;8.768;2023-02-20T01:35:29;100237.06;;;9.18;56.83
6506;BME280;3286;49.858;8.768;2023-02-20T01:37:56;100237.81;;;9.31;56.46
6506;BME280;3286;49.858;8.768;2023-02-20T01:40:26;100235.09;;;9.44;56.21
6506;BME280;3286;49.858;8.768;2023-02-20T01:42:53;100222.25;;;9.39;56.13
6506;BME280;3286;49.858;8.768;2023-02-20T01:45:35;100233.19;;;9.80;55.37
6506;BME280;3286;49.858;8.768;2023-02-20T01:48:02;100237.38;;;9.71;54.62
6506;BME280;3286;49.858;8.768;2023-02-20T01:50:31;100228.16;;;9.66;53.37
6506;BME280;3286;49.858;8.768;2023-02-20T01:53:02;100218.34;;;9.68;54.39
6506;BME280;3286;49.858;8.768;2023-02-20T01:55:34;100215.56;;;9.69;54.71
6506;BME280;3286;49.858;8.768;2023-02-20T01:58:05;100214.34;;;9.39;54.92
6506;BME280;3286;49.858;8.768;2023-02-20T02:00:34;100215.81;;;9.08;55.81
6506;BME280;3286;49.858;8.768;2023-02-20T02:03:04;100217.38;;;9.80;53.73
6506;BME280;3286;49.858;8.768;2023-02-20T02:05:32;100207.50;;;9.37;54.15
6506;BME280;3286;49.858;8.768;2023-02-20T02:08:02;100207.84;;;9.32;54.88
6506;BME280;3286;49.858;8.768;2023-02-20T02:10:33;100209.81;;;9.87;53.77
6506;BME280;3286;49.858;8.768;2023-02-20T02:13:02;100192.50;;;9.26;54.90
6506;BME280;3286;49.858;8.768;2023-02-20T02:15:29;100188.47;;;9.45;54.45
6506;BME280;3286;49.858;8.768;2023-02-20T02:18:08;100192.78;;;9.57;53.43
6506;BME280;3286;49.858;8.768;2023-02-20T02:21:08;100182.34;;;9.55;53.20
6506;BME280;3286;49.858;8.768;2023-02-20T02:24:00;100186.06;;;8.83;55.24
6506;BME280;3286;49.858;8.768;2023-02-20T02:30:12;100172.75;;;8.11;56.97
6506;BME280;3286;49.858;8.768;2023-02-20T02:33:27;100171.69;;;8.87;55.43
6506;BME280;3286;49.858;8.768;2023-02-20T02:36:20;100174.72;;;8.45;56.17
6506;BME280;3286;49.858;8.768;2023-02-20T02:38:54;100176.94;;;8.51;55.80
6506;BME280;3286;49.858;8.768;2023-02-20T02:41:31;100170.44;;;8.07;56.83
6506;BME280;3286;49.858;8.768;2023-02-20T02:44:07;100171.72;;;8.38;56.04
6506;BME280;3286;49.858;8.768;2023-02-20T02:46:39;100160.47;;;8.36;55.39
6506;BME280;3286;49.858;8.768;2023-02-20T02:49:13;100167.31;;;8.75;54.70
6506;BME280;3286;49.858;8.768;2023-02-20T02:51:44;100160.97;;;8.66;54.12
6506;BME280;3286;49.858;8.768;2023-02-20T02:54:14;100164.31;;;8.68;54.30
6506;BME280;3286;49.858;8.768;2023-02-20T02:56:43;100160.59;;;8.46;54.05
6506;BME280;3286;49.858;8.768;2023-02-20T02:59:12;100170.09;;;8.24;55.23
6506;BME280;3286;49.858;8.768;2023-02-20T03:01:42;100163.94;;;8.61;54.51
6506;BME280;3286;49.858;8.768;2023-02-20T03:04:12;100170.31;;;8.21;55.68
6506;BME280;3286;49.858;8.768;2023-02-20T03:06:42;100165.97;;;8.58;53.91
6506;BME280;3286;49.858;8.768;2023-02-20T03:09:14;100161.25;;;8.86;53.97
6506;BME280;3286;49.858;8.768;2023-02-20T03:11:44;100153.81;;;8.79;53.57
6506;BME280;3286;49.858;8.768;2023-02-20T03:14:15;100148.78;;;9.35;52.21
6506;BME280;3286;49.858;8.768;2023-02-20T03:17:05;100148.72;;;9.01;53.82
6506;BME280;3286;49.858;8.768;2023-02-20T03:19:38;100154.38;;;8.72;54.80
6506;BME280;3286;49.858;8.768;2023-02-20T03:22:11;100156.91;;;8.49;55.46
6506;BME280;3286;49.858;8.768;2023-02-20T03:24:41;100158.38;;;8.29;56.15
6506;BME280;3286;49.858;8.768;2023-02-20T03:27:22;100154.66;;;8.07;56.64
6506;BME280;3286;49.858;8.768;2023-02-20T03:29:55;100147.63;;;8.56;55.54
6506;BME280;3286;49.858;8.768;2023-02-20T03:32:25;100159.16;;;8.66;55.66
6506;BME280;3286;49.858;8.768;2023-02-20T03:35:11;100152.50;;;7.88;57.16
6506;BME280;3286;49.858;8.768;2023-02-20T03:37:57;100163.75;;;8.27;56.75
6506;BME280;3286;49.858;8.768;2023-02-20T03:40:44;100156.06;;;8.48;56.52
6506;BME280;3286;49.858;8.768;2023-02-20T03:43:30;100168.56;;;8.33;57.07
6506;BME280;3286;49.858;8.768;2023-02-20T03:46:00;100167.50;;;8.36;57.83
6506;BME280;3286;49.858;8.768;2023-02-20T03:48:32;100172.31;;;7.67;60.51
6506;BME280;3286;49.858;8.768;2023-02-20T03:51:01;100184.47;;;8.32;59.07
6506;BME280;3286;49.858;8.768;2023-02-20T03:53:37;100181.16;;;8.54;58.51
6506;BME280;3286;49.858;8.768;2023-02-20T03:56:09;100182.34;;;8.50;58.86
6506;BME280;3286;49.858;8.768;2023-02-20T03:58:41;100191.59;;;8.18;59.50
6506;BME280;3286;49.858;8.768;2023-02-20T04:01:12;100170.03;;;8.97;57.69
6506;BME280;3286;49.858;8.768;2023-02-20T04:03:44;100170.72;;;8.52;59.22
6506;BME280;3286;49.858;8.768;2023-02-20T04:06:13;100175.22;;;9.10;57.58
6506;BME280;3286;49.858;8.768;2023-02-20T04:08:44;100181.28;;;8.88;58.14
6506;BME280;3286;49.858;8.768;2023-02-20T04:11:16;100176.66;;;8.67;58.64
6506;BME280;3286;49.858;8.768;2023-02-20T04:13:47;100179.41;;;8.41;59.08
6506;BME280;3286;49.858;8.768;2023-02-20T04:16:15;100172.41;;;8.89;58.70
6506;BME280;3286;49.858;8.768;2023-02-20T04:18:42;100186.31;;;8.91;58.23
6506;BME280;3286;49.858;8.768;2023-02-20T04:21:14;100188.72;;;8.59;58.47
6506;BME280;3286;49.858;8.768;2023-02-20T04:23:46;100188.31;;;8.52;58.91
6506;BME280;3286;49.858;8.768;2023-02-20T04:26:18;100184.91;;;8.63;59.18
6506;BME280;3286;49.858;8.768;2023-02-20T04:28:46;100182.56;;;8.34;59.99
6506;BME280;3286;49.858;8.768;2023-02-20T04:31:15;100176.81;;;8.29;59.89
6506;BME280;3286;49.858;8.768;2023-02-20T04:33:42;100169.53;;;7.95;61.05
6506;BME280;3286;49.858;8.768;2023-02-20T04:36:09;100166.88;;;8.32;60.78
6506;BME280;3286;49.858;8.768;2023-02-20T04:38:36;100160.09;;;7.92;61.93
6506;BME280;3286;49.858;8.768;2023-02-20T04:41:03;100156.66;;;8.40;59.46
6506;BME280;3286;49.858;8.768;2023-02-20T04:43:30;100154.81;;;8.54;59.03
6506;BME280;3286;49.858;8.768;2023-02-20T04:45:57;100170.44;;;8.07;61.01
6506;BME280;3286;49.858;8.768;2023-02-20T04:48:24;100183.31;;;8.36;59.72
6506;BME280;3286;49.858;8.768;2023-02-20T04:50:50;100171.34;;;8.56;59.97
6506;BME280;3286;49.858;8.768;2023-02-20T04:53:18;100177.19;;;8.35;59.30
6506;BME280;3286;49.858;8.768;2023-02-20T04:55:44;100185.56;;;8.53;59.30
6506;BME280;3286;49.858;8.768;2023-02-20T04:58:11;100183.56;;;8.93;58.22
6506;BME280;3286;49.858;8.768;2023-02-20T05:00:39;100179.72;;;8.97;57.35
6506;BME280;3286;49.858;8.768;2023-02-20T05:03:05;100177.38;;;9.05;57.94
6506;BME280;3286;49.858;8.768;2023-02-20T05:05:32;100165.81;;;8.95;57.80
6506;BME280;3286;49.858;8.768;2023-02-20T05:08:00;100159.16;;;9.02;58.05
6506;BME280;3286;49.858;8.768;2023-02-20T05:10:29;100163.38;;;8.45;59.44
6506;BME280;3286;49.858;8.768;2023-02-20T05:12:56;100160.91;;;8.54;58.66
6506;BME280;3286;49.858;8.768;2023-02-20T05:15:23;100154.56;;;8.33;59.49
6506;BME280;3286;49.858;8.768;2023-02-20T05:17:51;100155.75;;;8.53;58.63
6506;BME280;3286;49.858;8.768;2023-02-20T05:20:18;100164.31;;;8.68;57.78
6506;BME280;3286;49.858;8.768;2023-02-20T05:22:45;100162.88;;;8.64;58.28
6506;BME280;3286;49.858;8.768;2023-02-20T05:25:11;100150.78;;;9.20;56.49
6506;BME280;3286;49.858;8.768;2023-02-20T05:27:39;100165.19;;;8.31;59.35
6506;BME280;3286;49.858;8.768;2023-02-20T05:30:08;100163.59;;;8.17;60.08
6506;BME280;3286;49.858;8.768;2023-02-20T05:32:35;100155.19;;;8.36;59.12
6506;BME280;3286;49.858;8.768;2023-02-20T05:35:04;100155.13;;;8.49;58.79
6506;BME280;3286;49.858;8.768;2023-02-20T05:37:31;100158.88;;;8.34;59.22
6506;BME280;3286;49.858;8.768;2023-02-20T05:39:58;100153.69;;;7.71;60.84
6506;BME280;3286;49.858;8.768;2023-02-20T05:42:25;100150.94;;;7.85;60.55
6506;BME280;3286;49.858;8.768;2023-02-20T05:44:51;100158.16;;;8.32;59.13
6506;BME280;3286;49.858;8.768;2023-02-20T05:47:18;100158.19;;;8.19;59.93
6506;BME280;3286;49.858;8.768;2023-02-20T05:49:45;100156.25;;;8.09;60.57
6506;BME280;3286;49.858;8.768;2023-02-20T05:52:13;100146.03;;;8.05;60.18
6506;BME280;3286;49.858;8.768;2023-02-20T05:54:40;100145.72;;;8.09;60.51
6506;BME280;3286;49.858;8.768;2023-02-20T05:57:07;100150.44;;;8.17;60.52
6506;BME280;3286;49.858;8.768;2023-02-20T05:59:36;100147.13;;;7.26;62.95
6506;BME280;3286;49.858;8.768;2023-02-20T06:02:03;100149.38;;;7.82;60.86
6506;BME280;3286;49.858;8.768;2023-02-20T06:04:30;100140.28;;;8.24;60.00
6506;BME280;3286;49.858;8.768;2023-02-20T06:06:56;100139.44;;;8.48;59.76
6506;BME280;3286;49.858;8.768;2023-02-20T06:09:25;100130.09;;;7.45;61.61
6506;BME280;3286;49.858;8.768;2023-02-20T06:11:53;100139.91;;;8.41;59.87
6506;BME280;3286;49.858;8.768;2023-02-20T06:14:22;100141.66;;;7.92;60.46
6506;BME280;3286;49.858;8.768;2023-02-20T06:16:49;100146.28;;;8.50;59.19
6506;BME280;3286;49.858;8.768;2023-02-20T06:19:20;100146.34;;;8.37;59.18
6506;BME280;3286;49.858;8.768;2023-02-20T06:21:47;100144.78;;;7.60;61.46
6506;BME280;3286;49.858;8.768;2023-02-20T06:24:14;100144.63;;;8.12;59.82
6506;BME280;3286;49.858;8.768;2023-02-20T06:26:43;100137.88;;;7.96;60.18
6506;BME280;3286;49.858;8.768;2023-02-20T06:29:10;100141.44;;;7.95;60.87
6506;BME280;3286;49.858;8.768;2023-02-20T06:31:36;100142.50;;;7.56;61.86
6506;BME280;3286;49.858;8.768;2023-02-20T06:34:03;100145.00;;;7.57;62.03
6506;BME280;3286;49.858;8.768;2023-02-20T06:36:32;100142.72;;;7.14;63.03
6506;BME280;3286;49.858;8.768;2023-02-20T06:39:00;100143.97;;;7.34;62.54
6506;BME280;3286;49.858;8.768;2023-02-20T06:41:26;100140.31;;;7.87;61.48
6506;BME280;3286;49.858;8.768;2023-02-20T06:43:54;100144.41;;;7.15;63.42
6506;BME280;3286;49.858;8.768;2023-02-20T06:46:22;100143.91;;;7.73;60.99
6506;BME280;3286;49.858;8.768;2023-02-20T06:48:50;100141.09;;;7.76;60.77
6506;BME280;3286;49.858;8.768;2023-02-20T06:51:18;100153.56;;;8.22;60.28
6506;BME280;3286;49.858;8.768;2023-02-20T06:53:46;100156.28;;;8.45;58.86
6506;BME280;3286;49.858;8.768;2023-02-20T06:56:15;100157.84;;;8.36;58.94
6506;BME280;3286;49.858;8.768;2023-02-20T06:58:45;100156.97;;;7.61;61.24
6506;BME280;3286;49.858;8.768;2023-02-20T07:01:13;100159.44;;;8.26;59.49
6506;BME280;3286;49.858;8.768;2023-02-20T07:03:39;100157.53;;;7.91;60.51
6506;BME280;3286;49.858;8.768;2023-02-20T07:06:06;100159.81;;;8.08;60.08
6506;BME280;3286;49.858;8.768;2023-02-20T07:08:33;100160.59;;;8.22;60.15
6506;BME280;3286;49.858;8.768;2023-02-20T07:10:59;100161.09;;;8.03;60.77
6506;BME280;3286;49.858;8.768;2023-02-20T07:13:26;100160.47;;;8.61;59.03
6506;BME280;3286;49.858;8.768;2023-02-20T07:15:53;100163.44;;;7.94;60.52
6506;BME280;3286;49.858;8.768;2023-02-20T07:18:21;100173.63;;;8.36;59.67
6506;BME280;3286;49.858;8.768;2023-02-20T07:20:49;100167.00;;;7.56;61.60
6506;BME280;3286;49.858;8.768;2023-02-20T07:23:17;100153.63;;;7.46;62.12
6506;BME280;3286;49.858;8.768;2023-02-20T07:25:44;100149.66;;;7.91;60.92
6506;BME280;3286;49.858;8.768;2023-02-20T07:28:12;100160.69;;;7.46;62.47
6506;BME280;3286;49.858;8.768;2023-02-20T07:30:39;100167.38;;;6.72;64.77
6506;BME280;3286;49.858;8.768;2023-02-20T07:33:05;100156.97;;;7.74;62.28
6506;BME280;3286;49.858;8.768;2023-02-20T07:35:35;100163.72;;;7.65;62.26
6506;BME280;3286;49.858;8.768;2023-02-20T07:38:02;100161.56;;;7.83;61.76
6506;BME280;3286;49.858;8.768;2023-02-20T07:40:29;100159.63;;;7.48;62.28
6506;BME280;3286;49.858;8.768;2023-02-20T07:42:55;100156.00;;;7.75;62.23
6506;BME280;3286;49.858;8.768;2023-02-20T07:45:22;100155.50;;;8.07;61.11
6506;BME280;3286;49.858;8.768;2023-02-20T07:47:49;100164.56;;;7.66;62.08
6506;BME280;3286;49.858;8.768;2023-02-20T07:50:16;100172.22;;;7.82;62.02
6506;BME280;3286;49.858;8.768;2023-02-20T07:52:45;100157.88;;;8.23;60.52
6506;BME280;3286;49.858;8.768;2023-02-20T07:55:13;100146.22;;;8.99;59.16
6506;BME280;3286;49.858;8.768;2023-02-20T07:57:40;100153.84;;;8.91;58.72
6506;BME280;3286;49.858;8.768;2023-02-20T08:00:08;100152.19;;;8.54;59.95
6506;BME280;3286;49.858;8.768;2023-02-20T08:02:35;100148.78;;;8.76;59.14
6506;BME280;3286;49.858;8.768;2023-02-20T08:05:02;100145.78;;;9.39;57.41
6506;BME280;3286;49.858;8.768;2023-02-20T08:07:28;100145.41;;;9.67;56.06
6506;BME280;3286;49.858;8.768;2023-02-20T08:09:56;100144.69;;;9.42;57.08
6506;BME280;3286;49.858;8.768;2023-02-20T08:12:23;100140.69;;;9.93;56.64
6506;BME280;3286;49.858;8.768;2023-02-20T08:14:50;100130.94;;;9.38;56.97
6506;BME280;3286;49.858;8.768;2023-02-20T08:17:17;100126.84;;;9.46;56.90
6506;BME280;3286;49.858;8.768;2023-02-20T08:19:44;100131.13;;;8.65;59.61
6506;BME280;3286;49.858;8.768;2023-02-20T08:22:11;100139.31;;;9.44;58.03
6506;BME280;3286;49.858;8.768;2023-02-20T08:24:37;100139.03;;;9.12;57.79
6506;BME280;3286;49.858;8.768;2023-02-20T08:27:06;100133.91;;;9.68;56.79
6506;BME280;3286;49.858;8.768;2023-02-20T08:29:32;100121.44;;;9.24;57.27
6506;BME280;3286;49.858;8.768;2023-02-20T08:31:59;100117.84;;;9.37;58.29
6506;BME280;3286;49.858;8.768;2023-02-20T08:34:26;100117.47;;;8.60;59.61
6506;BME280;3286;49.858;8.768;2023-02-20T08:36:52;100119.13;;;8.97;58.75
6506;BME280;3286;49.858;8.768;2023-02-20T08:39:19;100112.44;;;9.04;58.89
6506;BME280;3286;49.858;8.768;2023-02-20T08:41:46;100101.41;;;9.33;58.92
6506;BME280;3286;49.858;8.768;2023-02-20T08:44:14;100098.25;;;9.74;59.05
6506;BME280;3286;49.858;8.768;2023-02-20T08:46:45;100105.47;;;9.71;57.15
6506;BME280;3286;49.858;8.768;2023-02-20T08:49:12;100091.94;;;9.53;58.50
6506;BME280;3286;49.858;8.768;2023-02-20T08:51:38;100097.00;;;9.22;59.50
6506;BME280;3286;49.858;8.768;2023-02-20T08:54:05;100087.38;;;9.55;56.90
6506;BME280;3286;49.858;8.768;2023-02-20T08:56:31;100082.00;;;10.01;56.19
6506;BME280;3286;49.858;8.768;2023-02-20T08:59:01;100095.06;;;9.47;58.16
6506;BME280;3286;49.858;8.768;2023-02-20T09:01:29;100099.75;;;9.99;57.12
6506;BME280;3286;49.858;8.768;2023-02-20T09:03:56;100096.81;;;9.81;56.55
6506;BME280;3286;49.858;8.768;2023-02-20T09:06:22;100092.78;;;10.09;56.54
6506;BME280;3286;49.858;8.768;2023-02-20T09:08:50;100102.53;;;9.97;56.86
6506;BME280;3286;49.858;8.768;2023-02-20T09:11:17;100098.00;;;10.21;55.87
6506;BME280;3286;49.858;8.768;2023-02-20T09:13:44;100108.13;;;9.15;58.24
6506;BME280;3286;49.858;8.768;2023-02-20T09:16:11;100105.53;;;10.04;56.34
6506;BME280;3286;49.858;8.768;2023-02-20T09:18:39;100103.91;;;10.57;54.72
6506;BME280;3286;49.858;8.768;2023-02-20T09:21:08;100115.84;;;9.96;55.96
6506;BME280;3286;49.858;8.768;2023-02-20T09:23:35;100101.31;;;10.34;56.11
6506;BME280;3286;49.858;8.768;2023-02-20T09:26:02;100107.09;;;9.95;56.05
6506;BME280;3286;49.858;8.768;2023-02-20T09:28:29;100113.94;;;9.86;56.58
6506;BME280;3286;49.858;8.768;2023-02-20T09:30:56;100094.84;;;10.60;55.67
6506;BME280;3286;49.858;8.768;2023-02-20T09:33:25;100098.38;;;10.16;56.83
6506;BME280;3286;49.858;8.768;2023-02-20T09:35:54;100104.22;;;10.85;55.63
6506;BME280;3286;49.858;8.768;2023-02-20T09:38:21;100098.63;;;11.40;55.13
6506;BME280;3286;49.858;8.768;2023-02-20T09:40:53;100093.81;;;11.14;53.39
6506;BME280;3286;49.858;8.768;2023-02-20T09:43:29;100103.50;;;10.40;55.01
6506;BME280;3286;49.858;8.768;2023-02-20T09:46:02;100085.03;;;11.55;52.44
6506;BME280;3286;49.858;8.768;2023-02-20T09:48:39;100085.88;;;12.26;52.62
6506;BME280;3286;49.858;8.768;2023-02-20T09:51:13;100088.59;;;11.95;51.71
6506;BME280;3286;49.858;8.768;2023-02-20T09:53:47;100080.22;;;11.29;53.29
6506;BME280;3286;49.858;8.768;2023-02-20T09:56:20;100082.47;;;11.34;53.02
6506;BME280;3286;49.858;8.768;2023-02-20T09:58:52;100085.72;;;10.64;56.20
6506;BME280;3286;49.858;8.768;2023-02-20T10:01:22;100082.22;;;10.84;55.96
6506;BME280;3286;49.858;8.768;2023-02-20T10:03:53;100085.31;;;11.52;52.90
6506;BME280;3286;49.858;8.768;2023-02-20T10:06:24;100075.53;;;11.42;53.66
6506;BME280;3286;49.858;8.768;2023-02-20T10:08:52;100084.44;;;12.02;53.33
6506;BME280;3286;49.858;8.768;2023-02-20T10:11:30;100086.22;;;11.31;52.13
6506;BME280;3286;49.858;8.768;2023-02-20T10:14:12;100082.47;;;11.84;52.29
6506;BME280;3286;49.858;8.768;2023-02-20T10:16:47;100073.19;;;11.49;53.00
6506;BME280;3286;49.858;8.768;2023-02-20T10:19:23;100070.94;;;12.35;50.82
6506;BME280;3286;49.858;8.768;2023-02-20T10:22:01;100066.69;;;12.81;49.07
6506;BME280;3286;49.858;8.768;2023-02-20T10:24:41;100063.88;;;11.55;52.13
6506;BME280;3286;49.858;8.768;2023-02-20T10:27:21;100060.44;;;11.94;51.57
6506;BME280;3286;49.858;8.768;2023-02-20T10:29:52;100063.16;;;10.60;55.06
6506;BME280;3286;49.858;8.768;2023-02-20T10:32:24;100063.81;;;12.35;50.91
6506;BME280;3286;49.858;8.768;2023-02-20T10:34:55;100053.91;;;12.57;50.11
6506;BME280;3286;49.858;8.768;2023-02-20T10:37:27;100050.22;;;12.78;49.23
6506;BME280;3286;49.858;8.768;2023-02-20T10:39:58;100049.47;;;12.28;50.60
6506;BME280;3286;49.858;8.768;2023-02-20T10:42:30;100057.66;;;12.54;50.43
6506;BME280;3286;49.858;8.768;2023-02-20T10:45:04;100041.25;;;12.01;51.86
6506;BME280;3286;49.858;8.768;2023-02-20T10:47:40;100043.34;;;12.27;50.60
6506;BME280;3286;49.858;8.768;2023-02-20T10:50:15;100046.53;;;10.69;54.83
6506;BME280;3286;49.858;8.768;2023-02-20T10:52:48;100044.25;;;11.16;52.66
6506;BME280;3286;49.858;8.768;2023-02-20T10:55:24;100027.75;;;10.93;52.64
6506;BME280;3286;49.858;8.768;2023-02-20T10:57:56;100028.25;;;11.18;53.56
6506;BME280;3286;49.858;8.768;2023-02-20T11:00:30;100023.84;;;12.28;51.02
6506;BME280;3286;49.858;8.768;2023-02-20T11:03:02;100031.34;;;11.33;52.34
6506;BME280;3286;49.858;8.768;2023-02-20T11:05:34;100025.75;;;12.56;50.18
6506;BME280;3286;49.858;8.768;2023-02-20T11:08:05;100024.13;;;12.25;50.67
6506;BME280;3286;49.858;8.768;2023-02-20T11:10:32;100013.06;;;12.97;49.35
6506;BME280;3286;49.858;8.768;2023-02-20T11:13:00;100008.69;;;13.98;46.27
6506;BME280;3286;49.858;8.768;2023-02-20T11:15:30;100005.41;;;13.68;46.92
6506;BME280;3286;49.858;8.768;2023-02-20T11:17:58;100007.13;;;13.13;48.21
6506;BME280;3286;49.858;8.768;2023-02-20T11:20:42;100004.31;;;12.77;48.62
6506;BME280;3286;49.858;8.768;2023-02-20T11:23:32;100012.38;;;12.28;49.75
6506;BME280;3286;49.858;8.768;2023-02-20T11:26:20;100006.50;;;12.54;49.31
6506;BME280;3286;49.858;8.768;2023-02-20T11:28:55;100010.22;;;12.61;48.75
6506;BME280;3286;49.858;8.768;2023-02-20T11:31:24;100008.22;;;12.15;49.74
6506;BME280;3286;49.858;8.768;2023-02-20T11:33:53;99994.75;;;12.56;48.18
6506;BME280;3286;49.858;8.768;2023-02-20T11:36:22;99996.50;;;13.13;48.04
6506;BME280;3286;49.858;8.768;2023-02-20T11:38:57;99998.66;;;13.28;47.64
6506;BME280;3286;49.858;8.768;2023-02-20T11:41:28;99995.75;;;13.49;46.89
6506;BME280;3286;49.858;8.768;2023-02-20T11:44:23;99985.47;;;13.36;46.85
6506;BME280;3286;49.858;8.768;2023-02-20T11:47:18;99986.38;;;13.73;46.55
6506;BME280;3286;49.858;8.768;2023-02-20T11:49:45;99974.13;;;14.16;45.84
6506;BME280;3286;49.858;8.768;2023-02-20T11:52:17;99962.78;;;13.88;45.52
6506;BME280;3286;49.858;8.768;2023-02-20T11:54:45;99967.28;;;12.95;48.28
6506;BME280;3286;49.858;8.768;2023-02-20T11:57:22;99954.09;;;13.31;46.19
6506;BME280;3286;49.858;8.768;2023-02-20T11:59:51;99942.50;;;13.32;45.75
6506;BME280;3286;49.858;8.768;2023-02-20T12:02:33;99947.53;;;13.90;44.16
6506;BME280;3286;49.858;8.768;2023-02-20T12:05:09;99928.34;;;14.23;43.47
6506;BME280;3286;49.858;8.768;2023-02-20T12:07:39;99923.41;;;13.65;43.48
6506;BME280;3286;49.858;8.768;2023-02-20T12:10:19;99925.69;;;13.60;43.08
6506;BME280;3286;49.858;8.768;2023-02-20T12:12:47;99922.97;;;12.78;44.07
6506;BME280;3286;49.858;8.768;2023-02-20T12:15:15;99905.19;;;13.34;43.51
6506;BME280;3286;49.858;8.768;2023-02-20T12:17:55;99909.78;;;13.14;43.22
6506;BME280;3286;49.858;8.768;2023-02-20T12:20:28;99914.66;;;12.90;44.62
6506;BME280;3286;49.858;8.768;2023-02-20T12:23:03;99909.94;;;13.85;42.31
6506;BME280;3286;49.858;8.768;2023-02-20T12:25:49;99913.56;;;14.89;39.81
6506;BME280;3286;49.858;8.768;2023-02-20T12:28:25;99907.94;;;14.58;40.76
6506;BME280;3286;49.858;8.768;2023-02-20T12:31:04;99903.66;;;13.13;43.46
6506;BME280;3286;49.858;8.768;2023-02-20T12:36:46;99892.31;;;13.57;42.09
6506;BME280;3286;49.858;8.768;2023-02-20T12:39:22;99891.94;;;13.52;42.17
6506;BME280;3286;49.858;8.768;2023-02-20T12:42:04;99884.13;;;13.32;42.51
6506;BME280;3286;49.858;8.768;2023-02-20T12:44:54;99877.00;;;13.51;43.62
6506;BME280;3286;49.858;8.768;2023-02-20T12:47:28;99882.84;;;13.73;42.11
6506;BME280;3286;49.858;8.768;2023-02-20T12:50:17;99871.56;;;14.67;40.66
6506;BME280;3286;49.858;8.768;2023-02-20T12:53:00;99864.88;;;14.62;40.83
6506;BME280;3286;49.858;8.768;2023-02-20T12:55:34;99857.63;;;15.32;39.75
6506;BME280;3286;49.858;8.768;2023-02-20T12:58:15;99864.75;;;15.48;39.24
6506;BME280;3286;49.858;8.768;2023-02-20T13:00:47;99863.25;;;15.13;39.85
6506;BME280;3286;49.858;8.768;2023-02-20T13:03:18;99855.38;;;14.86;40.50
6506;BME280;3286;49.858;8.768;2023-02-20T13:05:47;99864.75;;;13.40;42.87
6506;BME280;3286;49.858;8.768;2023-02-20T13:08:21;99857.97;;;14.00;41.95
6506;BME280;3286;49.858;8.768;2023-02-20T13:10:52;99857.38;;;14.49;41.66
6506;BME280;3286;49.858;8.768;2023-02-20T13:13:24;99854.34;;;14.79;39.75
6506;BME280;3286;49.858;8.768;2023-02-20T13:15:57;99854.59;;;15.11;40.02
6506;BME280;3286;49.858;8.768;2023-02-20T13:18:33;99851.78;;;15.12;39.86
6506;BME280;3286;49.858;8.768;2023-02-20T13:21:04;99842.47;;;15.25;40.55
6506;BME280;3286;49.858;8.768;2023-02-20T13:23:35;99828.63;;;15.87;39.03
6506;BME280;3286;49.858;8.768;2023-02-20T13:26:05;99837.53;;;14.70;40.37
6506;BME280;3286;49.858;8.768;2023-02-20T13:28:51;99829.44;;;14.88;40.12
6506;BME280;3286;49.858;8.768;2023-02-20T13:31:20;99828.50;;;15.23;39.65
6506;BME280;3286;49.858;8.768;2023-02-20T13:33:49;99822.13;;;15.82;38.59
6506;BME280;3286;49.858;8.768;2023-02-20T13:36:40;99829.97;;;14.92;39.54
6506;BME280;3286;49.858;8.768;2023-02-20T13:39:39;99822.06;;;14.31;39.79
6506;BME280;3286;49.858;8.768;2023-02-20T13:42:32;99804.25;;;14.66;39.53
6506;BME280;3286;49.858;8.768;2023-02-20T13:45:03;99815.50;;;12.83;43.00
6506;BME280;3286;49.858;8.768;2023-02-20T13:48:18;99801.88;;;13.77;41.15